sensor_id;sensor_type;location;lat;lon;timestamp;P1;durP1;ratioP1;P2;durP2;ratioP2
48487;SDS011;34289;48.572;13.378;2023-08-30T00:00:11;7.97;;;7.18;;
48487;SDS011;34289;48.572;13.378;2023-08-30T00:02:37;9.20;;;7.15;;
48487;SDS011;34289;48.572;13.378;2023-08-30T00:05:04;10.35;;;7.15;;
48487;SDS011;34289;48.572;13.378;2023-08-30T00:07:30;8.63;;;7.20;;
48487;SDS011;34289;48.572;13.378;2023-08-30T00:09:57;7.60;;;6.80;;
48487;SDS011;34289;48.572;13.378;2023-08-30T00:12:23;8.52;;;6.70;;
48487;SDS011;34289;48.572;13.378;2023-08-30T00:14:49;9.55;;;7.50;;
48487;SDS011;34289;48.572;13.378;2023-08-30T00:17:15;9.40;;;7.32;;
48487;SDS011;34289;48.572;13.378;2023-08-30T00:19:41;6.97;;;6.28;;
48487;SDS011;34289;48.572;13.378;2023-08-30T00:22:08;8.82;;;5.93;;
48487;SDS011;34289;48.572;13.378;2023-08-30T00:24:34;7.93;;;7.13;;
48487;SDS011;34289;48.572;13.378;2023-08-30T00:27:00;9.88;;;6.82;;
48487;SDS011;34289;48.572;13.378;2023-08-30T00:29:27;6.70;;;6.00;;
48487;SDS011;34289;48.572;13.378;2023-08-30T00:31:53;7.05;;;5.85;;
48487;SDS011;34289;48.572;13.378;2023-08-30T00:34:19;7.32;;;6.60;;
48487;SDS011;34289;48.572;13.378;2023-08-30T00:36:45;8.15;;;5.93;;
48487;SDS011;34289;48.572;13.378;2023-08-30T00:39:11;6.72;;;6.05;;
48487;SDS011;34289;48.572;13.378;2023-08-30T00:41:38;8.32;;;6.65;;
48487;SDS011;34289;48.572;13.378;2023-08-30T00:44:04;7.88;;;6.15;;
48487;SDS011;34289;48.572;13.378;2023-08-30T00:46:30;6.97;;;6.28;;
48487;SDS011;34289;48.572;13.378;2023-08-30T00:48:57;6.72;;;6.03;;
48487;SDS011;34289;48.572;13.378;2023-08-30T00:51:23;6.80;;;6.20;;
48487;SDS011;34289;48.572;13.378;2023-08-30T00:53:49;8.52;;;6.70;;
48487;SDS011;34289;48.572;13.378;2023-08-30T00:56:15;7.43;;;5.88;;
48487;SDS011;34289;48.572;13.378;2023-08-30T00:58:41;7.75;;;6.65;;
48487;SDS011;34289;48.572;13.378;2023-08-30T01:01:07;6.63;;;5.93;;
48487;SDS011;34289;48.572;13.378;2023-08-30T01:03:34;6.60;;;5.60;;
48487;SDS011;34289;48.572;13.378;2023-08-30T01:06:02;8.73;;;5.93;;
48487;SDS011;34289;48.572;13.378;2023-08-30T01:08:28;7.13;;;6.25;;
48487;SDS011;34289;48.572;13.378;2023-08-30T01:13:53;6.05;;;5.43;;
48487;SDS011;34289;48.572;13.378;2023-08-30T01:16:32;7.32;;;5.70;;
48487;SDS011;34289;48.572;13.378;2023-08-30T01:18:59;7.28;;;5.38;;
48487;SDS011;34289;48.572;13.378;2023-08-30T01:21:30;7.13;;;5.22;;
48487;SDS011;34289;48.572;13.378;2023-08-30T01:24:03;6.70;;;5.18;;
48487;SDS011;34289;48.572;13.378;2023-08-30T01:28:59;5.57;;;5.07;;
48487;SDS011;34289;48.572;13.378;2023-08-30T01:31:27;6.75;;;4.90;;
48487;SDS011;34289;48.572;13.378;2023-08-30T01:33:54;11.10;;;5.65;;
48487;SDS011;34289;48.572;13.378;2023-08-30T01:36:22;6.00;;;5.47;;
48487;SDS011;34289;48.572;13.378;2023-08-30T01:38:48;8.52;;;5.13;;
48487;SDS011;34289;48.572;13.378;2023-08-30T01:41:14;7.15;;;5.65;;
48487;SDS011;34289;48.572;13.378;2023-08-30T01:43:41;5.45;;;4.95;;
48487;SDS011;34289;48.572;13.378;2023-08-30T01:46:08;6.53;;;5.15;;
48487;SDS011;34289;48.572;13.378;2023-08-30T01:48:35;6.30;;;5.32;;
48487;SDS011;34289;48.572;13.378;2023-08-30T01:51:02;6.07;;;5.47;;
48487;SDS011;34289;48.572;13.378;2023-08-30T01:53:28;7.30;;;5.18;;
48487;SDS011;34289;48.572;13.378;2023-08-30T01:55:54;6.07;;;5.47;;
48487;SDS011;34289;48.572;13.378;2023-08-30T01:58:20;7.47;;;5.32;;
48487;SDS011;34289;48.572;13.378;2023-08-30T02:00:46;6.05;;;5.45;;
48487;SDS011;34289;48.572;13.378;2023-08-30T02:03:13;8.88;;;6.20;;
48487;SDS011;34289;48.572;13.378;2023-08-30T02:05:41;7.72;;;5.78;;
48487;SDS011;34289;48.572;13.378;2023-08-30T02:08:14;6.25;;;5.38;;
48487;SDS011;34289;48.572;13.378;2023-08-30T02:10:45;6.32;;;5.70;;
48487;SDS011;34289;48.572;13.378;2023-08-30T02:13:18;6.60;;;5.40;;
48487;SDS011;34289;48.572;13.378;2023-08-30T02:15:50;6.20;;;5.43;;
48487;SDS011;34289;48.572;13.378;2023-08-30T02:18:16;6.35;;;5.75;;
48487;SDS011;34289;48.572;13.378;2023-08-30T02:20:42;8.40;;;5.72;;
48487;SDS011;34289;48.572;13.378;2023-08-30T02:23:09;10.00;;;5.10;;
48487;SDS011;34289;48.572;13.378;2023-08-30T02:25:35;9.90;;;5.68;;
48487;SDS011;34289;48.572;13.378;2023-08-30T02:28:01;8.35;;;5.35;;
48487;SDS011;34289;48.572;13.378;2023-08-30T02:30:27;6.28;;;5.18;;
48487;SDS011;34289;48.572;13.378;2023-08-30T02:32:53;5.88;;;5.38;;
48487;SDS011;34289;48.572;13.378;2023-08-30T02:35:19;6.60;;;5.20;;
48487;SDS011;34289;48.572;13.378;2023-08-30T02:37:45;7.07;;;5.55;;
48487;SDS011;34289;48.572;13.378;2023-08-30T02:40:11;6.97;;;5.95;;
48487;SDS011;34289;48.572;13.378;2023-08-30T02:42:37;7.40;;;6.30;;
48487;SDS011;34289;48.572;13.378;2023-08-30T02:45:03;7.70;;;6.03;;
48487;SDS011;34289;48.572;13.378;2023-08-30T02:47:29;6.53;;;5.93;;
48487;SDS011;34289;48.572;13.378;2023-08-30T02:49:55;7.55;;;6.65;;
48487;SDS011;34289;48.572;13.378;2023-08-30T02:52:21;7.05;;;6.32;;
48487;SDS011;34289;48.572;13.378;2023-08-30T02:54:47;6.82;;;6.13;;
48487;SDS011;34289;48.572;13.378;2023-08-30T02:57:13;6.78;;;6.07;;
48487;SDS011;34289;48.572;13.378;2023-08-30T02:59:39;7.18;;;6.07;;
48487;SDS011;34289;48.572;13.378;2023-08-30T03:02:05;7.65;;;6.25;;
48487;SDS011;34289;48.572;13.378;2023-08-30T03:04:31;8.05;;;6.25;;
48487;SDS011;34289;48.572;13.378;2023-08-30T03:06:57;7.47;;;6.78;;
48487;SDS011;34289;48.572;13.378;2023-08-30T03:09:23;6.97;;;6.15;;
48487;SDS011;34289;48.572;13.378;2023-08-30T03:11:49;7.65;;;6.90;;
48487;SDS011;34289;48.572;13.378;2023-08-30T03:14:15;6.55;;;5.95;;
48487;SDS011;34289;48.572;13.378;2023-08-30T03:16:41;7.00;;;6.30;;
48487;SDS011;34289;48.572;13.378;2023-08-30T03:19:10;6.88;;;6.20;;
48487;SDS011;34289;48.572;13.378;2023-08-30T03:21:36;7.15;;;6.38;;
48487;SDS011;34289;48.572;13.378;2023-08-30T03:24:02;6.95;;;6.18;;
48487;SDS011;34289;48.572;13.378;2023-08-30T03:26:28;6.90;;;6.30;;
48487;SDS011;34289;48.572;13.378;2023-08-30T03:28:54;7.25;;;6.55;;
48487;SDS011;34289;48.572;13.378;2023-08-30T03:31:21;6.95;;;6.25;;
48487;SDS011;34289;48.572;13.378;2023-08-30T03:33:47;8.27;;;6.88;;
48487;SDS011;34289;48.572;13.378;2023-08-30T03:36:14;7.78;;;7.00;;
48487;SDS011;34289;48.572;13.378;2023-08-30T03:38:41;8.43;;;7.25;;
48487;SDS011;34289;48.572;13.378;2023-08-30T03:41:08;7.95;;;7.18;;
48487;SDS011;34289;48.572;13.378;2023-08-30T03:43:34;11.65;;;7.03;;
48487;SDS011;34289;48.572;13.378;2023-08-30T03:46:01;9.85;;;7.25;;
48487;SDS011;34289;48.572;13.378;2023-08-30T03:48:28;8.73;;;7.82;;
48487;SDS011;34289;48.572;13.378;2023-08-30T03:50:54;8.20;;;7.18;;
48487;SDS011;34289;48.572;13.378;2023-08-30T03:53:20;8.23;;;7.22;;
48487;SDS011;34289;48.572;13.378;2023-08-30T03:55:46;10.13;;;7.38;;
48487;SDS011;34289;48.572;13.378;2023-08-30T03:58:12;8.23;;;6.75;;
48487;SDS011;34289;48.572;13.378;2023-08-30T04:00:39;7.60;;;6.85;;
48487;SDS011;34289;48.572;13.378;2023-08-30T04:03:08;9.07;;;7.40;;
48487;SDS011;34289;48.572;13.378;2023-08-30T04:05:35;9.15;;;7.18;;
48487;SDS011;34289;48.572;13.378;2023-08-30T04:08:01;8.80;;;7.13;;
48487;SDS011;34289;48.572;13.378;2023-08-30T04:10:27;8.60;;;7.70;;
48487;SDS011;34289;48.572;13.378;2023-08-30T04:12:53;8.30;;;7.40;;
48487;SDS011;34289;48.572;13.378;2023-08-30T04:15:19;13.13;;;7.65;;
48487;SDS011;34289;48.572;13.378;2023-08-30T04:17:45;10.68;;;7.35;;
48487;SDS011;34289;48.572;13.378;2023-08-30T04:20:11;12.48;;;8.13;;
48487;SDS011;34289;48.572;13.378;2023-08-30T04:22:37;9.27;;;8.27;;
48487;SDS011;34289;48.572;13.378;2023-08-30T04:25:03;10.13;;;8.15;;
48487;SDS011;34289;48.572;13.378;2023-08-30T04:27:29;7.47;;;6.78;;
48487;SDS011;34289;48.572;13.378;2023-08-30T04:29:55;8.00;;;7.20;;
48487;SDS011;34289;48.572;13.378;2023-08-30T04:32:21;10.07;;;7.30;;
48487;SDS011;34289;48.572;13.378;2023-08-30T04:34:47;9.70;;;6.70;;
48487;SDS011;34289;48.572;13.378;2023-08-30T04:37:13;11.07;;;8.15;;
48487;SDS011;34289;48.572;13.378;2023-08-30T04:39:40;11.48;;;7.95;;
48487;SDS011;34289;48.572;13.378;2023-08-30T04:42:05;8.38;;;7.43;;
48487;SDS011;34289;48.572;13.378;2023-08-30T04:44:31;8.50;;;7.20;;
48487;SDS011;34289;48.572;13.378;2023-08-30T04:46:58;8.68;;;7.55;;
48487;SDS011;34289;48.572;13.378;2023-08-30T04:49:24;8.27;;;7.47;;
48487;SDS011;34289;48.572;13.378;2023-08-30T04:51:50;9.90;;;8.05;;
48487;SDS011;34289;48.572;13.378;2023-08-30T04:54:16;10.15;;;9.10;;
48487;SDS011;34289;48.572;13.378;2023-08-30T04:56:42;8.25;;;7.07;;
48487;SDS011;34289;48.572;13.378;2023-08-30T04:59:08;13.10;;;7.45;;
48487;SDS011;34289;48.572;13.378;2023-08-30T05:01:34;10.38;;;7.85;;
48487;SDS011;34289;48.572;13.378;2023-08-30T05:04:00;10.75;;;7.82;;
48487;SDS011;34289;48.572;13.378;2023-08-30T05:06:27;9.43;;;7.20;;
48487;SDS011;34289;48.572;13.378;2023-08-30T05:08:53;7.93;;;7.22;;
48487;SDS011;34289;48.572;13.378;2023-08-30T05:11:19;7.95;;;7.15;;
48487;SDS011;34289;48.572;13.378;2023-08-30T05:13:45;8.73;;;7.43;;
48487;SDS011;34289;48.572;13.378;2023-08-30T05:16:11;9.55;;;7.30;;
48487;SDS011;34289;48.572;13.378;2023-08-30T05:18:36;7.63;;;6.82;;
48487;SDS011;34289;48.572;13.378;2023-08-30T05:21:03;8.70;;;6.57;;
48487;SDS011;34289;48.572;13.378;2023-08-30T05:23:30;10.27;;;6.85;;
48487;SDS011;34289;48.572;13.378;2023-08-30T05:25:56;7.60;;;6.78;;
48487;SDS011;34289;48.572;13.378;2023-08-30T05:28:22;9.07;;;7.43;;
48487;SDS011;34289;48.572;13.378;2023-08-30T05:30:48;8.52;;;7.18;;
48487;SDS011;34289;48.572;13.378;2023-08-30T05:33:14;8.32;;;7.38;;
48487;SDS011;34289;48.572;13.378;2023-08-30T05:35:40;8.73;;;7.78;;
48487;SDS011;34289;48.572;13.378;2023-08-30T05:38:06;11.20;;;7.35;;
48487;SDS011;34289;48.572;13.378;2023-08-30T05:40:32;9.60;;;6.90;;
48487;SDS011;34289;48.572;13.378;2023-08-30T05:42:58;8.80;;;7.90;;
48487;SDS011;34289;48.572;13.378;2023-08-30T05:45:24;9.93;;;6.68;;
48487;SDS011;34289;48.572;13.378;2023-08-30T05:47:50;9.32;;;7.30;;
48487;SDS011;34289;48.572;13.378;2023-08-30T05:50:16;7.97;;;7.07;;
48487;SDS011;34289;48.572;13.378;2023-08-30T05:52:42;9.65;;;6.82;;
48487;SDS011;34289;48.572;13.378;2023-08-30T05:55:09;8.15;;;7.35;;
48487;SDS011;34289;48.572;13.378;2023-08-30T05:57:35;7.07;;;6.38;;
48487;SDS011;34289;48.572;13.378;2023-08-30T06:00:02;9.38;;;7.13;;
48487;SDS011;34289;48.572;13.378;2023-08-30T06:02:29;7.25;;;6.55;;
48487;SDS011;34289;48.572;13.378;2023-08-30T06:04:55;7.13;;;6.30;;
48487;SDS011;34289;48.572;13.378;2023-08-30T06:07:21;6.93;;;5.90;;
48487;SDS011;34289;48.572;13.378;2023-08-30T06:09:47;9.30;;;6.40;;
48487;SDS011;34289;48.572;13.378;2023-08-30T06:12:14;7.38;;;6.60;;
48487;SDS011;34289;48.572;13.378;2023-08-30T06:14:40;7.40;;;5.82;;
48487;SDS011;34289;48.572;13.378;2023-08-30T06:17:06;6.38;;;5.78;;
48487;SDS011;34289;48.572;13.378;2023-08-30T06:19:32;6.20;;;5.60;;
48487;SDS011;34289;48.572;13.378;2023-08-30T06:21:58;8.23;;;6.15;;
48487;SDS011;34289;48.572;13.378;2023-08-30T06:24:24;5.85;;;5.35;;
48487;SDS011;34289;48.572;13.378;2023-08-30T06:26:50;5.60;;;5.10;;
48487;SDS011;34289;48.572;13.378;2023-08-30T06:29:16;8.55;;;5.55;;
48487;SDS011;34289;48.572;13.378;2023-08-30T06:31:42;8.98;;;5.15;;
48487;SDS011;34289;48.572;13.378;2023-08-30T06:34:10;9.60;;;5.97;;
48487;SDS011;34289;48.572;13.378;2023-08-30T06:36:36;5.07;;;4.32;;
48487;SDS011;34289;48.572;13.378;2023-08-30T06:39:02;5.20;;;4.70;;
48487;SDS011;34289;48.572;13.378;2023-08-30T06:41:28;5.38;;;4.65;;
48487;SDS011;34289;48.572;13.378;2023-08-30T06:43:54;6.93;;;4.22;;
48487;SDS011;34289;48.572;13.378;2023-08-30T06:46:21;4.53;;;4.05;;
48487;SDS011;34289;48.572;13.378;2023-08-30T06:48:47;3.75;;;3.40;;
48487;SDS011;34289;48.572;13.378;2023-08-30T06:51:13;4.30;;;3.90;;
48487;SDS011;34289;48.572;13.378;2023-08-30T06:53:39;4.35;;;3.83;;
48487;SDS011;34289;48.572;13.378;2023-08-30T06:56:05;4.65;;;4.05;;
48487;SDS011;34289;48.572;13.378;2023-08-30T06:58:31;5.25;;;4.25;;
48487;SDS011;34289;48.572;13.378;2023-08-30T07:00:57;5.07;;;4.00;;
48487;SDS011;34289;48.572;13.378;2023-08-30T07:03:23;5.15;;;4.15;;
48487;SDS011;34289;48.572;13.378;2023-08-30T07:05:52;4.22;;;3.60;;
48487;SDS011;34289;48.572;13.378;2023-08-30T07:08:18;6.18;;;4.10;;
48487;SDS011;34289;48.572;13.378;2023-08-30T07:10:44;3.80;;;3.45;;
48487;SDS011;34289;48.572;13.378;2023-08-30T07:13:10;5.30;;;3.40;;
48487;SDS011;34289;48.572;13.378;2023-08-30T07:15:38;4.80;;;3.53;;
48487;SDS011;34289;48.572;13.378;2023-08-30T07:18:04;3.72;;;3.28;;
48487;SDS011;34289;48.572;13.378;2023-08-30T07:20:31;3.58;;;2.80;;
48487;SDS011;34289;48.572;13.378;2023-08-30T07:22:57;4.05;;;2.95;;
48487;SDS011;34289;48.572;13.378;2023-08-30T07:25:23;2.88;;;2.58;;
48487;SDS011;34289;48.572;13.378;2023-08-30T07:27:49;4.55;;;2.83;;
48487;SDS011;34289;48.572;13.378;2023-08-30T07:30:16;4.68;;;2.42;;
48487;SDS011;34289;48.572;13.378;2023-08-30T07:32:42;2.63;;;1.80;;
48487;SDS011;34289;48.572;13.378;2023-08-30T07:35:08;2.22;;;2.03;;
48487;SDS011;34289;48.572;13.378;2023-08-30T07:37:34;3.25;;;1.88;;
48487;SDS011;34289;48.572;13.378;2023-08-30T07:40:01;2.53;;;2.03;;
48487;SDS011;34289;48.572;13.378;2023-08-30T07:42:29;3.50;;;1.95;;
48487;SDS011;34289;48.572;13.378;2023-08-30T07:44:55;3.63;;;2.00;;
48487;SDS011;34289;48.572;13.378;2023-08-30T07:47:21;2.75;;;1.95;;
48487;SDS011;34289;48.572;13.378;2023-08-30T07:49:47;1.88;;;1.60;;
48487;SDS011;34289;48.572;13.378;2023-08-30T07:52:13;2.63;;;1.80;;
48487;SDS011;34289;48.572;13.378;2023-08-30T07:54:39;2.92;;;1.98;;
48487;SDS011;34289;48.572;13.378;2023-08-30T07:57:06;3.60;;;2.20;;
48487;SDS011;34289;48.572;13.378;2023-08-30T07:59:33;2.75;;;2.20;;
48487;SDS011;34289;48.572;13.378;2023-08-30T08:02:02;2.50;;;1.70;;
48487;SDS011;34289;48.572;13.378;2023-08-30T08:04:28;4.13;;;1.83;;
48487;SDS011;34289;48.572;13.378;2023-08-30T08:06:54;2.40;;;1.70;;
48487;SDS011;34289;48.572;13.378;2023-08-30T08:09:20;2.67;;;1.77;;
48487;SDS011;34289;48.572;13.378;2023-08-30T08:11:47;3.28;;;2.35;;
48487;SDS011;34289;48.572;13.378;2023-08-30T08:14:13;4.13;;;2.15;;
48487;SDS011;34289;48.572;13.378;2023-08-30T08:16:39;4.10;;;2.28;;
48487;SDS011;34289;48.572;13.378;2023-08-30T08:19:05;4.82;;;2.13;;
48487;SDS011;34289;48.572;13.378;2023-08-30T08:21:32;2.80;;;1.90;;
48487;SDS011;34289;48.572;13.378;2023-08-30T08:23:59;2.72;;;1.90;;
48487;SDS011;34289;48.572;13.378;2023-08-30T08:26:25;3.85;;;2.05;;
48487;SDS011;34289;48.572;13.378;2023-08-30T08:28:51;4.05;;;2.35;;
48487;SDS011;34289;48.572;13.378;2023-08-30T08:31:17;3.15;;;2.28;;
48487;SDS011;34289;48.572;13.378;2023-08-30T08:33:43;3.17;;;2.53;;
48487;SDS011;34289;48.572;13.378;2023-08-30T08:36:09;2.55;;;2.00;;
48487;SDS011;34289;48.572;13.378;2023-08-30T08:38:35;2.25;;;2.00;;
48487;SDS011;34289;48.572;13.378;2023-08-30T08:41:06;2.30;;;1.90;;
48487;SDS011;34289;48.572;13.378;2023-08-30T08:43:37;3.78;;;2.10;;
48487;SDS011;34289;48.572;13.378;2023-08-30T08:46:03;5.35;;;2.28;;
48487;SDS011;34289;48.572;13.378;2023-08-30T08:48:31;6.90;;;2.35;;
48487;SDS011;34289;48.572;13.378;2023-08-30T08:51:02;3.65;;;2.60;;
48487;SDS011;34289;48.572;13.378;2023-08-30T08:53:28;3.65;;;2.25;;
48487;SDS011;34289;48.572;13.378;2023-08-30T08:55:54;4.53;;;2.90;;
48487;SDS011;34289;48.572;13.378;2023-08-30T08:58:23;2.53;;;2.03;;
48487;SDS011;34289;48.572;13.378;2023-08-30T09:00:49;2.97;;;2.53;;
48487;SDS011;34289;48.572;13.378;2023-08-30T09:03:15;5.93;;;2.58;;
48487;SDS011;34289;48.572;13.378;2023-08-30T09:05:43;3.10;;;2.70;;
48487;SDS011;34289;48.572;13.378;2023-08-30T09:08:11;3.70;;;2.15;;
48487;SDS011;34289;48.572;13.378;2023-08-30T09:10:40;2.78;;;1.75;;
48487;SDS011;34289;48.572;13.378;2023-08-30T09:13:06;3.90;;;2.20;;
48487;SDS011;34289;48.572;13.378;2023-08-30T09:15:32;2.53;;;2.05;;
48487;SDS011;34289;48.572;13.378;2023-08-30T09:17:58;2.75;;;1.88;;
48487;SDS011;34289;48.572;13.378;2023-08-30T09:20:25;2.30;;;1.88;;
48487;SDS011;34289;48.572;13.378;2023-08-30T09:22:51;2.95;;;2.28;;
48487;SDS011;34289;48.572;13.378;2023-08-30T09:25:24;7.32;;;1.85;;
48487;SDS011;34289;48.572;13.378;2023-08-30T09:28:01;2.00;;;1.67;;
48487;SDS011;34289;48.572;13.378;2023-08-30T09:30:28;1.83;;;1.58;;
48487;SDS011;34289;48.572;13.378;2023-08-30T09:33:03;4.53;;;1.80;;
48487;SDS011;34289;48.572;13.378;2023-08-30T09:37:54;1.77;;;1.60;;
48487;SDS011;34289;48.572;13.378;2023-08-30T09:40:20;3.80;;;1.75;;
48487;SDS011;34289;48.572;13.378;2023-08-30T09:42:47;2.17;;;1.63;;
48487;SDS011;34289;48.572;13.378;2023-08-30T09:45:19;2.90;;;1.60;;
48487;SDS011;34289;48.572;13.378;2023-08-30T09:47:47;2.10;;;1.67;;
48487;SDS011;34289;48.572;13.378;2023-08-30T09:50:15;2.22;;;1.60;;
48487;SDS011;34289;48.572;13.378;2023-08-30T09:52:43;2.83;;;1.42;;
48487;SDS011;34289;48.572;13.378;2023-08-30T09:55:10;2.50;;;1.45;;
48487;SDS011;34289;48.572;13.378;2023-08-30T09:57:36;2.58;;;1.42;;
48487;SDS011;34289;48.572;13.378;2023-08-30T10:00:02;2.55;;;1.17;;
48487;SDS011;34289;48.572;13.378;2023-08-30T10:02:29;4.03;;;1.52;;
48487;SDS011;34289;48.572;13.378;2023-08-30T10:04:56;4.35;;;1.45;;
48487;SDS011;34289;48.572;13.378;2023-08-30T10:07:22;2.83;;;1.60;;
48487;SDS011;34289;48.572;13.378;2023-08-30T10:09:49;1.77;;;1.30;;
48487;SDS011;34289;48.572;13.378;2023-08-30T10:12:16;2.90;;;1.73;;
48487;SDS011;34289;48.572;13.378;2023-08-30T10:14:42;1.80;;;1.60;;
48487;SDS011;34289;48.572;13.378;2023-08-30T10:17:08;1.52;;;1.30;;
48487;SDS011;34289;48.572;13.378;2023-08-30T10:19:35;2.00;;;1.45;;
48487;SDS011;34289;48.572;13.378;2023-08-30T10:22:04;2.50;;;1.50;;
48487;SDS011;34289;48.572;13.378;2023-08-30T10:27:16;5.03;;;1.48;;
48487;SDS011;34289;48.572;13.378;2023-08-30T10:29:42;4.60;;;1.77;;
48487;SDS011;34289;48.572;13.378;2023-08-30T10:32:10;2.08;;;1.70;;
48487;SDS011;34289;48.572;13.378;2023-08-30T10:34:36;2.55;;;1.83;;
48487;SDS011;34289;48.572;13.378;2023-08-30T10:37:03;2.85;;;1.60;;
48487;SDS011;34289;48.572;13.378;2023-08-30T10:39:36;1.98;;;1.77;;
48487;SDS011;34289;48.572;13.378;2023-08-30T10:42:12;2.28;;;1.45;;
48487;SDS011;34289;48.572;13.378;2023-08-30T10:44:47;2.88;;;1.30;;
48487;SDS011;34289;48.572;13.378;2023-08-30T10:47:32;2.08;;;1.60;;
48487;SDS011;34289;48.572;13.378;2023-08-30T10:50:06;2.00;;;1.60;;
48487;SDS011;34289;48.572;13.378;2023-08-30T10:52:33;3.78;;;1.67;;
48487;SDS011;34289;48.572;13.378;2023-08-30T10:57:33;2.13;;;1.55;;
48487;SDS011;34289;48.572;13.378;2023-08-30T11:02:44;5.25;;;1.55;;
48487;SDS011;34289;48.572;13.378;2023-08-30T11:05:11;2.78;;;1.50;;
48487;SDS011;34289;48.572;13.378;2023-08-30T11:07:37;2.55;;;1.67;;
48487;SDS011;34289;48.572;13.378;2023-08-30T11:10:06;2.78;;;1.80;;
48487;SDS011;34289;48.572;13.378;2023-08-30T11:12:32;1.80;;;1.35;;
48487;SDS011;34289;48.572;13.378;2023-08-30T11:14:58;2.13;;;1.58;;
48487;SDS011;34289;48.572;13.378;2023-08-30T11:17:25;5.15;;;3.70;;
48487;SDS011;34289;48.572;13.378;2023-08-30T11:20:05;2.58;;;1.83;;
48487;SDS011;34289;48.572;13.378;2023-08-30T11:22:47;2.53;;;1.90;;
48487;SDS011;34289;48.572;13.378;2023-08-30T11:25:14;4.05;;;1.80;;
48487;SDS011;34289;48.572;13.378;2023-08-30T11:27:40;1.63;;;1.42;;
48487;SDS011;34289;48.572;13.378;2023-08-30T11:30:07;1.42;;;1.10;;
48487;SDS011;34289;48.572;13.378;2023-08-30T11:32:43;2.92;;;1.30;;
48487;SDS011;34289;48.572;13.378;2023-08-30T11:35:08;1.80;;;1.40;;
48487;SDS011;34289;48.572;13.378;2023-08-30T11:37:34;1.77;;;1.63;;
48487;SDS011;34289;48.572;13.378;2023-08-30T11:40:04;1.60;;;1.38;;
48487;SDS011;34289;48.572;13.378;2023-08-30T11:42:31;2.17;;;1.40;;
48487;SDS011;34289;48.572;13.378;2023-08-30T11:44:57;2.20;;;1.80;;
48487;SDS011;34289;48.572;13.378;2023-08-30T11:47:25;4.35;;;2.17;;
48487;SDS011;34289;48.572;13.378;2023-08-30T11:49:54;7.60;;;3.38;;
48487;SDS011;34289;48.572;13.378;2023-08-30T11:52:21;4.40;;;2.70;;
48487;SDS011;34289;48.572;13.378;2023-08-30T11:54:48;3.83;;;2.22;;
48487;SDS011;34289;48.572;13.378;2023-08-30T11:57:14;2.17;;;1.70;;
48487;SDS011;34289;48.572;13.378;2023-08-30T11:59:40;5.03;;;2.05;;
48487;SDS011;34289;48.572;13.378;2023-08-30T12:02:09;2.10;;;1.70;;
48487;SDS011;34289;48.572;13.378;2023-08-30T12:04:41;4.88;;;2.05;;
48487;SDS011;34289;48.572;13.378;2023-08-30T12:07:07;2.60;;;1.70;;
48487;SDS011;34289;48.572;13.378;2023-08-30T12:09:33;2.13;;;1.55;;
48487;SDS011;34289;48.572;13.378;2023-08-30T12:12:09;3.20;;;2.25;;
48487;SDS011;34289;48.572;13.378;2023-08-30T12:14:38;4.85;;;2.97;;
48487;SDS011;34289;48.572;13.378;2023-08-30T12:17:04;4.05;;;1.90;;
48487;SDS011;34289;48.572;13.378;2023-08-30T12:19:34;2.47;;;2.10;;
48487;SDS011;34289;48.572;13.378;2023-08-30T12:22:03;4.43;;;2.10;;
48487;SDS011;34289;48.572;13.378;2023-08-30T12:24:39;3.58;;;2.10;;
48487;SDS011;34289;48.572;13.378;2023-08-30T12:27:06;4.55;;;2.10;;
48487;SDS011;34289;48.572;13.378;2023-08-30T12:29:32;3.22;;;1.90;;
48487;SDS011;34289;48.572;13.378;2023-08-30T12:31:58;2.78;;;2.05;;
48487;SDS011;34289;48.572;13.378;2023-08-30T12:34:24;3.78;;;2.03;;
48487;SDS011;34289;48.572;13.378;2023-08-30T12:36:50;2.28;;;1.60;;
48487;SDS011;34289;48.572;13.378;2023-08-30T12:39:16;3.90;;;1.95;;
48487;SDS011;34289;48.572;13.378;2023-08-30T12:41:42;2.67;;;2.30;;
48487;SDS011;34289;48.572;13.378;2023-08-30T12:44:08;3.13;;;1.80;;
48487;SDS011;34289;48.572;13.378;2023-08-30T12:46:34;3.25;;;1.75;;
48487;SDS011;34289;48.572;13.378;2023-08-30T12:49:00;2.92;;;2.00;;
48487;SDS011;34289;48.572;13.378;2023-08-30T12:51:26;1.98;;;1.70;;
48487;SDS011;34289;48.572;13.378;2023-08-30T12:53:52;2.80;;;1.92;;
48487;SDS011;34289;48.572;13.378;2023-08-30T12:56:18;3.42;;;1.50;;
48487;SDS011;34289;48.572;13.378;2023-08-30T12:58:44;2.42;;;1.83;;
48487;SDS011;34289;48.572;13.378;2023-08-30T13:01:10;1.95;;;1.55;;
48487;SDS011;34289;48.572;13.378;2023-08-30T13:03:36;3.88;;;2.28;;
48487;SDS011;34289;48.572;13.378;2023-08-30T13:06:02;5.03;;;2.00;;
48487;SDS011;34289;48.572;13.378;2023-08-30T13:08:29;4.18;;;2.20;;
48487;SDS011;34289;48.572;13.378;2023-08-30T13:10:55;5.28;;;2.00;;
48487;SDS011;34289;48.572;13.378;2023-08-30T13:13:21;4.10;;;1.73;;
48487;SDS011;34289;48.572;13.378;2023-08-30T13:15:47;2.10;;;1.80;;
48487;SDS011;34289;48.572;13.378;2023-08-30T13:18:13;2.47;;;1.80;;
48487;SDS011;34289;48.572;13.378;2023-08-30T13:20:40;1.83;;;1.50;;
48487;SDS011;34289;48.572;13.378;2023-08-30T13:23:07;2.25;;;1.73;;
48487;SDS011;34289;48.572;13.378;2023-08-30T13:25:33;2.40;;;2.00;;
48487;SDS011;34289;48.572;13.378;2023-08-30T13:27:59;4.57;;;1.85;;
48487;SDS011;34289;48.572;13.378;2023-08-30T13:30:25;1.60;;;1.50;;
48487;SDS011;34289;48.572;13.378;2023-08-30T13:32:51;2.63;;;1.95;;
48487;SDS011;34289;48.572;13.378;2023-08-30T13:35:17;3.45;;;1.42;;
48487;SDS011;34289;48.572;13.378;2023-08-30T13:37:43;2.33;;;2.13;;
48487;SDS011;34289;48.572;13.378;2023-08-30T13:40:09;2.17;;;1.83;;
48487;SDS011;34289;48.572;13.378;2023-08-30T13:42:35;3.80;;;2.22;;
48487;SDS011;34289;48.572;13.378;2023-08-30T13:45:01;7.30;;;2.10;;
48487;SDS011;34289;48.572;13.378;2023-08-30T13:47:28;2.55;;;1.85;;
48487;SDS011;34289;48.572;13.378;2023-08-30T13:49:53;4.88;;;1.85;;
48487;SDS011;34289;48.572;13.378;2023-08-30T13:52:20;4.13;;;2.08;;
48487;SDS011;34289;48.572;13.378;2023-08-30T13:54:46;2.60;;;2.10;;
48487;SDS011;34289;48.572;13.378;2023-08-30T13:57:12;2.33;;;1.80;;
48487;SDS011;34289;48.572;13.378;2023-08-30T13:59:38;2.72;;;2.05;;
48487;SDS011;34289;48.572;13.378;2023-08-30T14:02:04;2.95;;;2.05;;
48487;SDS011;34289;48.572;13.378;2023-08-30T14:04:30;2.45;;;1.75;;
48487;SDS011;34289;48.572;13.378;2023-08-30T14:06:57;3.10;;;2.03;;
48487;SDS011;34289;48.572;13.378;2023-08-30T14:09:23;2.10;;;1.70;;
48487;SDS011;34289;48.572;13.378;2023-08-30T14:11:49;4.60;;;1.75;;
48487;SDS011;34289;48.572;13.378;2023-08-30T14:14:15;5.03;;;1.75;;
48487;SDS011;34289;48.572;13.378;2023-08-30T14:16:41;2.30;;;1.83;;
48487;SDS011;34289;48.572;13.378;2023-08-30T14:19:07;2.47;;;1.80;;
48487;SDS011;34289;48.572;13.378;2023-08-30T14:21:33;2.05;;;1.83;;
48487;SDS011;34289;48.572;13.378;2023-08-30T14:23:59;3.42;;;2.35;;
48487;SDS011;34289;48.572;13.378;2023-08-30T14:26:26;2.72;;;2.00;;
48487;SDS011;34289;48.572;13.378;2023-08-30T14:28:52;2.50;;;1.85;;
48487;SDS011;34289;48.572;13.378;2023-08-30T14:31:18;2.88;;;1.88;;
48487;SDS011;34289;48.572;13.378;2023-08-30T14:33:44;2.20;;;2.00;;
48487;SDS011;34289;48.572;13.378;2023-08-30T14:36:10;2.25;;;2.05;;
48487;SDS011;34289;48.572;13.378;2023-08-30T14:38:38;2.58;;;2.03;;
48487;SDS011;34289;48.572;13.378;2023-08-30T14:41:05;2.42;;;2.22;;
48487;SDS011;34289;48.572;13.378;2023-08-30T14:43:31;3.40;;;2.75;;
48487;SDS011;34289;48.572;13.378;2023-08-30T14:46:01;2.30;;;2.10;;